createdAt,value
2023-02-13T00:03:38.494Z,22.47
2023-02-13T00:07:41.308Z,21.57
2023-02-13T00:11:44.050Z,19.40
2023-02-13T00:15:56.559Z,18.40
2023-02-13T00:19:59.261Z,20.70
2023-02-13T00:24:02.338Z,18.30
2023-02-13T00:28:05.206Z,16.83
2023-02-13T00:32:09.684Z,16.33
2023-02-13T00:36:14.096Z,15.57
2023-02-13T00:40:16.861Z,15.17
2023-02-13T00:44:19.837Z,15.73
2023-02-13T00:48:24.357Z,19.23
2023-02-13T00:52:27.077Z,21.87
2023-02-13T00:56:29.876Z,20.90
2023-02-13T01:00:32.972Z,19.43
2023-02-13T01:04:37.225Z,18.90
2023-02-13T01:08:41.501Z,18.40
2023-02-13T01:12:44.145Z,18.33
2023-02-13T01:16:46.839Z,19.63
2023-02-13T01:21:00.277Z,18.27
2023-02-13T01:25:03.076Z,18.50
2023-02-13T01:29:05.851Z,19.30
2023-02-13T01:33:08.548Z,20.03
2023-02-13T01:37:12.815Z,20.20
2023-02-13T01:41:15.678Z,20.27
2023-02-13T01:45:24.941Z,21.30
2023-02-13T01:49:27.718Z,22.07
2023-02-13T01:53:33.641Z,22.93
2023-02-13T01:57:36.845Z,24.07
2023-02-13T02:01:39.731Z,24.83
2023-02-13T02:05:43.162Z,24.97
2023-02-13T02:09:47.473Z,22.87
2023-02-13T02:13:51.069Z,21.60
2023-02-13T02:17:53.751Z,15.33
2023-02-13T02:22:36.028Z,15.13
2023-02-13T02:27:08.420Z,11.23
2023-02-13T02:31:39.691Z,10.97
2023-02-13T02:35:47.761Z,12.47
2023-02-13T02:39:59.095Z,12.27
2023-02-13T02:44:24.110Z,12.63
2023-02-13T02:48:49.348Z,11.00
2023-02-13T02:53:00.664Z,10.80
2023-02-13T02:57:08.671Z,10.03
2023-02-13T03:01:32.323Z,10.03
2023-02-13T03:06:04.042Z,8.83
2023-02-13T03:10:26.454Z,9.37
2023-02-13T03:14:29.805Z,10.60
2023-02-13T03:19:08.191Z,12.50
2023-02-13T03:23:16.540Z,10.87
2023-02-13T03:27:41.701Z,11.20
2023-02-13T03:31:51.648Z,11.00
2023-02-13T03:36:21.505Z,11.40
2023-02-13T03:40:30.263Z,10.83
2023-02-13T03:44:35.836Z,11.10
2023-02-13T03:48:58.485Z,11.10
2023-02-13T03:53:05.454Z,11.37
2023-02-13T03:57:27.900Z,12.20
2023-02-13T04:01:33.092Z,11.43
2023-02-13T04:05:40.674Z,11.47
2023-02-13T04:09:44.012Z,11.53
2023-02-13T04:13:50.406Z,10.53
2023-02-13T04:17:55.295Z,11.30
2023-02-13T04:21:59.349Z,10.97
2023-02-13T04:26:04.288Z,11.17
2023-02-13T04:30:10.217Z,10.67
2023-02-13T04:34:12.877Z,10.80
2023-02-13T04:38:15.847Z,10.00
2023-02-13T04:42:18.837Z,10.37
2023-02-13T04:46:22.949Z,9.50
2023-02-13T04:50:26.463Z,8.47
2023-02-13T04:54:29.238Z,9.47
2023-02-13T04:58:34.389Z,9.03
2023-02-13T05:02:40.582Z,8.43
2023-02-13T05:06:43.802Z,8.73
2023-02-13T05:10:46.736Z,7.97
2023-02-13T05:14:49.469Z,7.37
2023-02-13T05:18:55.069Z,8.80
2023-02-13T05:23:15.382Z,8.17
2023-02-13T05:27:18.357Z,7.37
2023-02-13T05:31:21.139Z,7.43
2023-02-13T05:35:25.847Z,7.20
2023-02-13T05:39:28.570Z,6.90
2023-02-13T05:43:31.601Z,8.50
2023-02-13T05:47:34.403Z,7.23
2023-02-13T05:51:38.814Z,6.37
2023-02-13T05:55:41.551Z,7.43
2023-02-13T05:59:44.255Z,7.60
2023-02-13T06:03:47.443Z,9.03
2023-02-13T06:07:51.576Z,8.57
2023-02-13T06:11:54.299Z,8.57
2023-02-13T06:15:57.163Z,11.10
2023-02-13T06:20:00.047Z,10.03
2023-02-13T06:24:04.465Z,5.80
2023-02-13T06:28:07.422Z,6.60
2023-02-13T06:32:10.175Z,7.43
2023-02-13T06:36:12.906Z,7.90
2023-02-13T06:40:17.590Z,6.00
2023-02-13T06:44:20.630Z,6.10
2023-02-13T06:48:26.007Z,6.70
2023-02-13T06:52:30.321Z,6.67
2023-02-13T06:56:36.558Z,5.23
2023-02-13T07:00:39.604Z,5.10
2023-02-13T07:04:42.438Z,5.00
2023-02-13T07:08:45.175Z,5.27
2023-02-13T07:13:03.695Z,5.47
2023-02-13T07:17:07.967Z,5.50
2023-02-13T07:21:10.933Z,7.07
2023-02-13T07:25:13.902Z,6.30
2023-02-13T07:29:18.022Z,5.13
2023-02-13T07:33:20.763Z,5.77
2023-02-13T07:37:23.539Z,6.03
2023-02-13T07:41:26.941Z,6.03
2023-02-13T07:45:31.165Z,5.60
2023-02-13T07:49:34.368Z,6.40
2023-02-13T07:53:37.157Z,6.10
2023-02-13T07:57:39.875Z,6.33
2023-02-13T08:01:44.119Z,6.13
2023-02-13T08:05:48.997Z,6.90
2023-02-13T08:10:09.129Z,6.87
2023-02-13T08:14:12.141Z,7.67
2023-02-13T08:18:18.836Z,7.40
2023-02-13T08:22:22.558Z,7.73
2023-02-13T08:26:25.296Z,8.00
2023-02-13T08:30:28.797Z,8.67
2023-02-13T08:34:32.871Z,9.33
2023-02-13T08:38:35.725Z,10.17
2023-02-13T08:42:39.206Z,9.80
2023-02-13T08:46:42.128Z,8.67
2023-02-13T08:50:46.317Z,6.40
2023-02-13T08:54:49.316Z,6.00
2023-02-13T08:58:52.836Z,5.57
2023-02-13T09:02:55.971Z,7.63
2023-02-13T09:07:00.293Z,8.13
2023-02-13T09:11:05.617Z,7.67
2023-02-13T09:15:09.019Z,8.00
2023-02-13T09:19:11.704Z,8.50
2023-02-13T09:23:15.790Z,8.93
2023-02-13T09:27:18.650Z,7.83
2023-02-13T09:31:24.048Z,8.27
2023-02-13T09:35:27.233Z,8.77
2023-02-13T09:39:31.351Z,9.10
2023-02-13T09:43:36.782Z,8.50
2023-02-13T09:47:42.273Z,9.87
2023-02-13T09:51:45.930Z,9.93
2023-02-13T09:55:56.000Z,11.40
2023-02-13T10:00:11.742Z,11.93
2023-02-13T10:04:27.038Z,11.80
2023-02-13T10:08:40.087Z,12.43
2023-02-13T10:12:53.848Z,14.67
2023-02-13T10:17:00.576Z,14.10
2023-02-13T10:21:05.276Z,14.20
2023-02-13T10:25:12.146Z,13.57
2023-02-13T10:29:38.935Z,13.80
2023-02-13T10:33:47.296Z,13.73
2023-02-13T10:37:53.120Z,13.97
2023-02-13T10:41:57.956Z,13.03
2023-02-13T10:46:08.943Z,12.63
2023-02-13T10:50:17.961Z,12.17
2023-02-13T10:54:28.818Z,11.27
2023-02-13T10:58:41.485Z,11.50
2023-02-13T11:02:54.958Z,10.57
2023-02-13T11:07:00.801Z,11.73
2023-02-13T11:11:04.011Z,11.17
2023-02-13T11:15:09.055Z,11.63
2023-02-13T11:19:20.422Z,11.93
2023-02-13T11:23:36.042Z,14.23
2023-02-13T11:27:40.843Z,13.47
2023-02-13T11:31:43.747Z,13.67
2023-02-13T11:35:48.228Z,12.07
2023-02-13T11:39:52.766Z,12.87
2023-02-13T11:44:01.268Z,12.00
2023-02-13T11:48:10.000Z,12.57
2023-02-13T11:52:29.914Z,11.93
2023-02-13T11:57:03.193Z,11.27
2023-02-13T12:01:19.198Z,11.90
2023-02-13T12:05:24.398Z,11.60
2023-02-13T12:09:29.665Z,11.83
2023-02-13T12:13:36.864Z,12.73
2023-02-13T12:17:41.068Z,12.70
2023-02-13T12:21:59.461Z,12.97
2023-02-13T12:26:15.034Z,12.63
2023-02-13T12:30:35.181Z,12.63
2023-02-13T12:35:17.763Z,12.23
2023-02-13T12:39:28.586Z,12.80
2023-02-13T12:43:54.365Z,11.50
2023-02-13T12:48:22.758Z,11.63
2023-02-13T12:52:40.591Z,9.90
2023-02-13T12:56:59.330Z,10.80
2023-02-13T13:01:08.737Z,8.40
2023-02-13T13:05:23.722Z,8.33
2023-02-13T13:09:56.780Z,7.90
2023-02-13T13:14:04.562Z,7.40
2023-02-13T13:18:24.728Z,7.40
2023-02-13T13:22:31.473Z,7.80
2023-02-13T13:26:37.391Z,9.90
2023-02-13T13:30:40.971Z,8.07
2023-02-13T13:34:45.093Z,8.57
2023-02-13T13:38:54.030Z,8.37
2023-02-13T13:43:01.863Z,8.47
2023-02-13T13:47:10.522Z,8.47
2023-02-13T13:51:17.427Z,8.17
2023-02-13T13:55:58.683Z,8.50
2023-02-13T14:00:30.335Z,8.90
2023-02-13T14:04:41.619Z,8.30
2023-02-13T14:09:19.871Z,8.77
2023-02-13T14:13:32.885Z,9.13
2023-02-13T14:17:55.711Z,8.67
2023-02-13T14:22:32.935Z,9.27
2023-02-13T14:26:37.338Z,9.00
2023-02-13T14:30:41.740Z,8.97
2023-02-13T14:34:54.245Z,8.70
2023-02-13T14:38:57.655Z,9.07
2023-02-13T14:43:04.859Z,9.30
2023-02-13T14:47:19.174Z,9.20
2023-02-13T14:51:28.670Z,8.73
2023-02-13T14:55:35.233Z,9.17
2023-02-13T14:59:40.340Z,11.00
2023-02-13T15:03:48.581Z,9.77
2023-02-13T15:07:53.755Z,8.97
2023-02-13T15:11:56.448Z,10.10
2023-02-13T15:16:01.124Z,10.53
2023-02-13T15:20:24.947Z,11.03
2023-02-13T15:24:36.640Z,10.63
2023-02-13T15:28:39.645Z,11.10
2023-02-13T15:32:43.040Z,10.13
2023-02-13T15:36:51.876Z,9.90
2023-02-13T15:40:57.199Z,9.37
2023-02-13T15:45:02.289Z,9.10
2023-02-13T15:49:07.439Z,8.67
2023-02-13T15:53:14.975Z,13.67
2023-02-13T15:57:18.772Z,12.17
2023-02-13T16:01:21.964Z,9.20
2023-02-13T16:05:38.917Z,9.50
2023-02-13T16:09:44.548Z,9.47
2023-02-13T16:14:12.826Z,9.47
2023-02-13T16:18:20.287Z,9.43
2023-02-13T16:22:30.127Z,9.73
2023-02-13T16:26:36.063Z,9.87
2023-02-13T16:30:41.618Z,10.27
2023-02-13T16:34:44.388Z,10.30
2023-02-13T16:38:47.882Z,8.47
2023-02-13T16:42:51.997Z,8.53
2023-02-13T16:46:58.191Z,8.53
2023-02-13T16:51:01.923Z,12.07
2023-02-13T16:55:06.237Z,10.70
2023-02-13T16:59:25.656Z,10.70
2023-02-13T17:03:28.786Z,11.30
2023-02-13T17:07:35.110Z,11.77
2023-02-13T17:11:39.818Z,12.97
2023-02-13T17:15:44.827Z,13.73
2023-02-13T17:19:54.297Z,12.97
2023-02-13T17:23:58.951Z,15.43
2023-02-13T17:28:04.920Z,15.27
2023-02-13T17:32:12.687Z,18.00
2023-02-13T17:36:15.674Z,20.20
2023-02-13T17:40:29.526Z,18.60
2023-02-13T17:44:32.506Z,18.70
2023-02-13T17:48:36.836Z,20.70
2023-02-13T17:52:40.565Z,18.50
2023-02-13T17:56:43.239Z,17.23
2023-02-13T18:00:46.253Z,14.70
2023-02-13T18:04:51.066Z,14.17
2023-02-13T18:08:53.812Z,15.50
2023-02-13T18:12:58.297Z,15.87
2023-02-13T18:17:01.573Z,14.70
2023-02-13T18:21:06.257Z,15.13
2023-02-13T18:25:09.833Z,16.40
2023-02-13T18:29:12.522Z,16.80
2023-02-13T18:33:16.447Z,20.37
2023-02-13T18:37:20.931Z,17.10
2023-02-13T18:41:24.268Z,19.77
2023-02-13T18:45:27.008Z,19.47
2023-02-13T18:49:29.835Z,19.83
2023-02-13T18:53:34.108Z,18.80
2023-02-13T18:57:36.933Z,15.00
2023-02-13T19:01:39.660Z,13.83
2023-02-13T19:05:42.387Z,14.50
2023-02-13T19:09:46.683Z,14.20
2023-02-13T19:13:49.369Z,15.27
2023-02-13T19:17:52.430Z,17.27
2023-02-13T19:21:55.154Z,17.37
2023-02-13T19:25:59.616Z,18.63
2023-02-13T19:30:02.257Z,17.97
2023-02-13T19:34:05.773Z,18.60
2023-02-13T19:38:08.594Z,21.73
2023-02-13T19:42:12.908Z,30.93
2023-02-13T19:46:15.647Z,27.40
2023-02-13T19:50:19.433Z,27.27
2023-02-13T19:54:22.103Z,24.87
2023-02-13T19:58:29.097Z,22.10
2023-02-13T20:02:32.151Z,21.03
2023-02-13T20:06:36.151Z,19.63
2023-02-13T20:10:39.012Z,21.07
2023-02-13T20:14:43.264Z,25.53
2023-02-13T20:18:46.050Z,28.83
2023-02-13T20:22:49.449Z,21.10
2023-02-13T20:26:52.136Z,21.17
2023-02-13T20:30:56.705Z,21.00
2023-02-13T20:35:00.134Z,19.40
2023-02-13T20:39:04.844Z,19.93
2023-02-13T20:43:07.550Z,19.43
2023-02-13T20:47:11.851Z,19.77
2023-02-13T20:51:16.027Z,21.60
2023-02-13T20:55:18.974Z,20.53
2023-02-13T20:59:21.872Z,21.33
2023-02-13T21:03:26.255Z,22.97
2023-02-13T21:07:31.658Z,22.40
2023-02-13T21:11:35.177Z,24.30
2023-02-13T21:15:38.391Z,23.97
2023-02-13T21:19:42.451Z,24.80
2023-02-13T21:23:45.338Z,23.90
2023-02-13T21:27:48.002Z,25.70
2023-02-13T21:31:51.222Z,25.27
2023-02-13T21:36:03.578Z,26.10
2023-02-13T21:40:08.161Z,25.97
2023-02-13T21:44:13.328Z,26.93
2023-02-13T21:48:16.285Z,26.70
2023-02-13T21:52:20.400Z,26.43
2023-02-13T21:56:24.517Z,27.20
2023-02-13T22:00:27.487Z,28.10
2023-02-13T22:04:30.178Z,28.57
2023-02-13T22:08:34.558Z,29.37
2023-02-13T22:12:37.484Z,29.20
2023-02-13T22:16:42.450Z,28.93
2023-02-13T22:20:45.233Z,28.57
2023-02-13T22:24:49.266Z,30.93
2023-02-13T22:28:52.621Z,30.27
2023-02-13T22:32:55.619Z,29.30
2023-02-13T22:36:58.558Z,30.37
2023-02-13T22:41:08.311Z,29.43
2023-02-13T22:45:11.315Z,30.13
2023-02-13T22:49:14.211Z,30.50
2023-02-13T22:53:17.421Z,32.20
2023-02-13T22:57:21.760Z,32.23
2023-02-13T23:01:26.374Z,31.03
2023-02-13T23:05:29.083Z,30.97
2023-02-13T23:09:31.767Z,29.70
2023-02-13T23:13:35.986Z,30.67
2023-02-13T23:17:56.381Z,32.53
2023-02-13T23:21:59.332Z,32.40
2023-02-13T23:26:05.071Z,30.60
2023-02-13T23:30:11.317Z,30.63
2023-02-13T23:34:14.025Z,30.53
2023-02-13T23:38:17.008Z,35.97
2023-02-13T23:42:19.689Z,31.27
2023-02-13T23:46:23.747Z,30.50
2023-02-13T23:50:26.485Z,31.07
2023-02-13T23:54:29.166Z,29.80
2023-02-13T23:58:31.934Z,29.60
